sensor_id;sensor_type;location;lat;lon;timestamp;P1;durP1;ratioP1;P2;durP2;ratioP2
79706;SDS011;69200;53.612;-2.416;2024-03-25T00:01:49;8.53;;;2.87;;
79706;SDS011;69200;53.612;-2.416;2024-03-25T00:04:14;9.67;;;2.67;;
79706;SDS011;69200;53.612;-2.416;2024-03-25T00:06:39;15.73;;;2.87;;
79706;SDS011;69200;53.612;-2.416;2024-03-25T00:09:04;10.10;;;2.40;;
79706;SDS011;69200;53.612;-2.416;2024-03-25T00:11:32;11.20;;;2.40;;
79706;SDS011;69200;53.612;-2.416;2024-03-25T00:13:57;9.43;;;2.50;;
79706;SDS011;69200;53.612;-2.416;2024-03-25T00:16:23;10.43;;;2.93;;
79706;SDS011;69200;53.612;-2.416;2024-03-25T00:18:48;7.18;;;1.98;;
79706;SDS011;69200;53.612;-2.416;2024-03-25T00:21:13;8.37;;;2.13;;
79706;SDS011;69200;53.612;-2.416;2024-03-25T00:23:39;10.65;;;2.85;;
79706;SDS011;69200;53.612;-2.416;2024-03-25T00:26:04;13.43;;;2.60;;
79706;SDS011;69200;53.612;-2.416;2024-03-25T00:28:29;10.27;;;2.30;;
79706;SDS011;69200;53.612;-2.416;2024-03-25T00:30:54;7.07;;;1.80;;
79706;SDS011;69200;53.612;-2.416;2024-03-25T00:33:19;10.30;;;2.00;;
79706;SDS011;69200;53.612;-2.416;2024-03-25T00:35:45;8.07;;;2.17;;
79706;SDS011;69200;53.612;-2.416;2024-03-25T00:38:11;9.63;;;2.08;;
79706;SDS011;69200;53.612;-2.416;2024-03-25T00:40:36;10.25;;;2.30;;
79706;SDS011;69200;53.612;-2.416;2024-03-25T00:43:01;6.47;;;1.73;;
79706;SDS011;69200;53.612;-2.416;2024-03-25T00:45:26;8.93;;;2.20;;
79706;SDS011;69200;53.612;-2.416;2024-03-25T00:47:55;4.70;;;1.95;;
79706;SDS011;69200;53.612;-2.416;2024-03-25T00:50:21;9.05;;;2.70;;
79706;SDS011;69200;53.612;-2.416;2024-03-25T00:52:46;11.03;;;2.50;;
79706;SDS011;69200;53.612;-2.416;2024-03-25T00:55:11;10.30;;;2.50;;
79706;SDS011;69200;53.612;-2.416;2024-03-25T00:57:36;9.73;;;2.03;;
79706;SDS011;69200;53.612;-2.416;2024-03-25T01:00:02;5.90;;;1.77;;
79706;SDS011;69200;53.612;-2.416;2024-03-25T01:02:29;6.57;;;2.13;;
79706;SDS011;69200;53.612;-2.416;2024-03-25T01:04:54;5.70;;;1.93;;
79706;SDS011;69200;53.612;-2.416;2024-03-25T01:07:19;6.43;;;1.50;;
79706;SDS011;69200;53.612;-2.416;2024-03-25T01:09:45;11.93;;;2.07;;
79706;SDS011;69200;53.612;-2.416;2024-03-25T01:12:10;9.80;;;1.33;;
79706;SDS011;69200;53.612;-2.416;2024-03-25T01:14:35;10.47;;;2.10;;
79706;SDS011;69200;53.612;-2.416;2024-03-25T01:17:01;4.40;;;1.30;;
79706;SDS011;69200;53.612;-2.416;2024-03-25T01:19:26;4.80;;;1.20;;
79706;SDS011;69200;53.612;-2.416;2024-03-25T01:21:51;6.30;;;1.37;;
79706;SDS011;69200;53.612;-2.416;2024-03-25T01:24:16;3.30;;;0.80;;
79706;SDS011;69200;53.612;-2.416;2024-03-25T01:26:42;3.67;;;1.30;;
79706;SDS011;69200;53.612;-2.416;2024-03-25T01:29:07;4.03;;;1.00;;
79706;SDS011;69200;53.612;-2.416;2024-03-25T01:31:32;8.13;;;1.75;;
79706;SDS011;69200;53.612;-2.416;2024-03-25T01:33:57;11.07;;;1.47;;
79706;SDS011;69200;53.612;-2.416;2024-03-25T01:36:23;3.23;;;1.00;;
79706;SDS011;69200;53.612;-2.416;2024-03-25T01:38:48;1.80;;;0.60;;
79706;SDS011;69200;53.612;-2.416;2024-03-25T01:41:13;3.95;;;1.13;;
79706;SDS011;69200;53.612;-2.416;2024-03-25T01:43:40;8.27;;;1.17;;
79706;SDS011;69200;53.612;-2.416;2024-03-25T01:46:05;4.90;;;1.10;;
79706;SDS011;69200;53.612;-2.416;2024-03-25T01:48:31;4.32;;;1.08;;
79706;SDS011;69200;53.612;-2.416;2024-03-25T01:50:57;2.58;;;0.73;;
79706;SDS011;69200;53.612;-2.416;2024-03-25T01:53:23;4.65;;;1.27;;
79706;SDS011;69200;53.612;-2.416;2024-03-25T01:55:48;4.32;;;1.05;;
79706;SDS011;69200;53.612;-2.416;2024-03-25T01:58:14;4.15;;;0.88;;
79706;SDS011;69200;53.612;-2.416;2024-03-25T02:00:40;6.40;;;1.20;;
79706;SDS011;69200;53.612;-2.416;2024-03-25T02:03:05;6.28;;;1.50;;
79706;SDS011;69200;53.612;-2.416;2024-03-25T02:05:30;5.22;;;1.00;;
79706;SDS011;69200;53.612;-2.416;2024-03-25T02:07:56;8.33;;;1.03;;
79706;SDS011;69200;53.612;-2.416;2024-03-25T02:10:21;4.35;;;1.15;;
79706;SDS011;69200;53.612;-2.416;2024-03-25T02:12:47;2.78;;;0.93;;
79706;SDS011;69200;53.612;-2.416;2024-03-25T02:15:12;3.57;;;1.10;;
79706;SDS011;69200;53.612;-2.416;2024-03-25T02:17:38;11.20;;;1.65;;
79706;SDS011;69200;53.612;-2.416;2024-03-25T02:20:04;3.15;;;1.15;;
79706;SDS011;69200;53.612;-2.416;2024-03-25T02:22:35;2.95;;;0.95;;
79706;SDS011;69200;53.612;-2.416;2024-03-25T02:25:05;10.77;;;1.63;;
79706;SDS011;69200;53.612;-2.416;2024-03-25T02:27:31;4.55;;;1.75;;
79706;SDS011;69200;53.612;-2.416;2024-03-25T02:30:09;5.28;;;1.38;;
79706;SDS011;69200;53.612;-2.416;2024-03-25T02:32:37;6.35;;;1.27;;
79706;SDS011;69200;53.612;-2.416;2024-03-25T02:35:03;4.63;;;1.30;;
79706;SDS011;69200;53.612;-2.416;2024-03-25T02:37:29;7.43;;;1.40;;
79706;SDS011;69200;53.612;-2.416;2024-03-25T02:39:55;8.57;;;1.40;;
79706;SDS011;69200;53.612;-2.416;2024-03-25T02:42:21;5.15;;;1.35;;
79706;SDS011;69200;53.612;-2.416;2024-03-25T02:44:46;5.30;;;1.45;;
79706;SDS011;69200;53.612;-2.416;2024-03-25T02:47:11;8.20;;;1.50;;
79706;SDS011;69200;53.612;-2.416;2024-03-25T02:49:37;6.70;;;1.07;;
79706;SDS011;69200;53.612;-2.416;2024-03-25T02:52:02;6.45;;;1.48;;
79706;SDS011;69200;53.612;-2.416;2024-03-25T02:54:27;7.00;;;1.13;;
79706;SDS011;69200;53.612;-2.416;2024-03-25T02:56:52;3.53;;;0.80;;
79706;SDS011;69200;53.612;-2.416;2024-03-25T02:59:17;3.93;;;1.23;;
79706;SDS011;69200;53.612;-2.416;2024-03-25T03:01:43;5.60;;;1.30;;
79706;SDS011;69200;53.612;-2.416;2024-03-25T03:04:08;6.33;;;1.00;;
79706;SDS011;69200;53.612;-2.416;2024-03-25T03:06:33;3.67;;;1.30;;
79706;SDS011;69200;53.612;-2.416;2024-03-25T03:08:58;5.23;;;1.40;;
79706;SDS011;69200;53.612;-2.416;2024-03-25T03:11:23;4.97;;;1.03;;
79706;SDS011;69200;53.612;-2.416;2024-03-25T03:13:49;3.13;;;0.87;;
79706;SDS011;69200;53.612;-2.416;2024-03-25T03:16:14;5.40;;;1.80;;
79706;SDS011;69200;53.612;-2.416;2024-03-25T03:18:39;5.53;;;0.93;;
79706;SDS011;69200;53.612;-2.416;2024-03-25T03:21:04;3.78;;;1.00;;
79706;SDS011;69200;53.612;-2.416;2024-03-25T03:23:30;5.13;;;1.43;;
79706;SDS011;69200;53.612;-2.416;2024-03-25T03:25:55;4.57;;;1.43;;
79706;SDS011;69200;53.612;-2.416;2024-03-25T03:28:22;3.67;;;0.90;;
79706;SDS011;69200;53.612;-2.416;2024-03-25T03:30:47;9.80;;;1.93;;
79706;SDS011;69200;53.612;-2.416;2024-03-25T03:33:12;1.63;;;0.73;;
79706;SDS011;69200;53.612;-2.416;2024-03-25T03:35:37;5.13;;;1.17;;
79706;SDS011;69200;53.612;-2.416;2024-03-25T03:38:03;5.53;;;1.43;;
79706;SDS011;69200;53.612;-2.416;2024-03-25T03:40:28;6.90;;;1.37;;
79706;SDS011;69200;53.612;-2.416;2024-03-25T03:42:53;5.25;;;1.38;;
79706;SDS011;69200;53.612;-2.416;2024-03-25T03:45:18;7.20;;;1.63;;
79706;SDS011;69200;53.612;-2.416;2024-03-25T03:47:44;3.53;;;1.30;;
79706;SDS011;69200;53.612;-2.416;2024-03-25T03:50:09;7.97;;;1.10;;
79706;SDS011;69200;53.612;-2.416;2024-03-25T03:52:34;5.18;;;1.02;;
79706;SDS011;69200;53.612;-2.416;2024-03-25T03:54:59;4.03;;;1.10;;
79706;SDS011;69200;53.612;-2.416;2024-03-25T03:57:25;6.45;;;1.50;;
79706;SDS011;69200;53.612;-2.416;2024-03-25T03:59:51;5.70;;;0.95;;
79706;SDS011;69200;53.612;-2.416;2024-03-25T04:02:16;7.53;;;1.80;;
79706;SDS011;69200;53.612;-2.416;2024-03-25T04:04:41;3.07;;;1.27;;
79706;SDS011;69200;53.612;-2.416;2024-03-25T04:07:06;6.47;;;1.33;;
79706;SDS011;69200;53.612;-2.416;2024-03-25T04:09:32;8.80;;;1.73;;
79706;SDS011;69200;53.612;-2.416;2024-03-25T04:11:58;4.97;;;1.75;;
79706;SDS011;69200;53.612;-2.416;2024-03-25T04:14:23;5.10;;;1.67;;
79706;SDS011;69200;53.612;-2.416;2024-03-25T04:16:48;6.33;;;1.20;;
79706;SDS011;69200;53.612;-2.416;2024-03-25T04:19:13;4.80;;;1.23;;
79706;SDS011;69200;53.612;-2.416;2024-03-25T04:21:38;3.60;;;1.43;;
79706;SDS011;69200;53.612;-2.416;2024-03-25T04:24:04;5.80;;;1.45;;
79706;SDS011;69200;53.612;-2.416;2024-03-25T04:26:29;4.90;;;1.80;;
79706;SDS011;69200;53.612;-2.416;2024-03-25T04:28:55;5.23;;;1.13;;
79706;SDS011;69200;53.612;-2.416;2024-03-25T04:31:20;6.27;;;1.60;;
79706;SDS011;69200;53.612;-2.416;2024-03-25T04:33:45;5.50;;;1.33;;
79706;SDS011;69200;53.612;-2.416;2024-03-25T04:36:10;6.90;;;2.03;;
79706;SDS011;69200;53.612;-2.416;2024-03-25T04:38:35;5.73;;;1.80;;
79706;SDS011;69200;53.612;-2.416;2024-03-25T04:41:01;5.17;;;1.53;;
79706;SDS011;69200;53.612;-2.416;2024-03-25T04:43:26;7.27;;;1.33;;
79706;SDS011;69200;53.612;-2.416;2024-03-25T04:45:51;6.30;;;1.27;;
79706;SDS011;69200;53.612;-2.416;2024-03-25T04:48:16;3.23;;;1.07;;
79706;SDS011;69200;53.612;-2.416;2024-03-25T04:50:41;7.03;;;1.50;;
79706;SDS011;69200;53.612;-2.416;2024-03-25T04:53:07;4.67;;;1.43;;
79706;SDS011;69200;53.612;-2.416;2024-03-25T04:55:32;4.27;;;1.00;;
79706;SDS011;69200;53.612;-2.416;2024-03-25T04:57:57;6.53;;;1.40;;
79706;SDS011;69200;53.612;-2.416;2024-03-25T05:00:22;4.53;;;1.30;;
79706;SDS011;69200;53.612;-2.416;2024-03-25T05:02:47;5.47;;;1.57;;
79706;SDS011;69200;53.612;-2.416;2024-03-25T05:05:13;6.23;;;1.63;;
79706;SDS011;69200;53.612;-2.416;2024-03-25T05:07:38;7.60;;;2.00;;
79706;SDS011;69200;53.612;-2.416;2024-03-25T05:10:03;7.47;;;1.77;;
79706;SDS011;69200;53.612;-2.416;2024-03-25T05:12:29;7.13;;;1.70;;
79706;SDS011;69200;53.612;-2.416;2024-03-25T05:14:58;6.03;;;1.23;;
79706;SDS011;69200;53.612;-2.416;2024-03-25T05:17:23;10.07;;;2.00;;
79706;SDS011;69200;53.612;-2.416;2024-03-25T05:19:48;8.27;;;1.67;;
79706;SDS011;69200;53.612;-2.416;2024-03-25T05:22:14;7.03;;;1.92;;
79706;SDS011;69200;53.612;-2.416;2024-03-25T05:24:39;17.60;;;2.07;;
79706;SDS011;69200;53.612;-2.416;2024-03-25T05:27:04;7.93;;;2.23;;
79706;SDS011;69200;53.612;-2.416;2024-03-25T05:29:30;4.25;;;1.42;;
79706;SDS011;69200;53.612;-2.416;2024-03-25T05:31:56;7.30;;;1.73;;
79706;SDS011;69200;53.612;-2.416;2024-03-25T05:34:21;8.10;;;1.48;;
79706;SDS011;69200;53.612;-2.416;2024-03-25T05:36:47;5.95;;;1.20;;
79706;SDS011;69200;53.612;-2.416;2024-03-25T05:39:12;3.88;;;1.35;;
79706;SDS011;69200;53.612;-2.416;2024-03-25T05:41:38;4.40;;;0.97;;
79706;SDS011;69200;53.612;-2.416;2024-03-25T05:44:03;4.60;;;1.67;;
79706;SDS011;69200;53.612;-2.416;2024-03-25T05:46:28;5.53;;;1.53;;
79706;SDS011;69200;53.612;-2.416;2024-03-25T05:48:53;5.37;;;1.73;;
79706;SDS011;69200;53.612;-2.416;2024-03-25T05:51:18;4.53;;;1.17;;
79706;SDS011;69200;53.612;-2.416;2024-03-25T05:53:45;5.78;;;1.55;;
79706;SDS011;69200;53.612;-2.416;2024-03-25T05:56:10;5.27;;;1.50;;
79706;SDS011;69200;53.612;-2.416;2024-03-25T05:58:36;16.03;;;2.33;;
79706;SDS011;69200;53.612;-2.416;2024-03-25T06:01:01;8.25;;;2.03;;
79706;SDS011;69200;53.612;-2.416;2024-03-25T06:03:29;7.95;;;1.77;;
79706;SDS011;69200;53.612;-2.416;2024-03-25T06:05:54;7.35;;;2.22;;
79706;SDS011;69200;53.612;-2.416;2024-03-25T06:08:19;7.97;;;1.90;;
79706;SDS011;69200;53.612;-2.416;2024-03-25T06:10:51;8.82;;;3.05;;
79706;SDS011;69200;53.612;-2.416;2024-03-25T06:13:17;7.18;;;2.80;;
79706;SDS011;69200;53.612;-2.416;2024-03-25T06:15:42;12.25;;;3.25;;
79706;SDS011;69200;53.612;-2.416;2024-03-25T06:18:07;6.90;;;2.67;;
79706;SDS011;69200;53.612;-2.416;2024-03-25T06:20:32;8.50;;;2.97;;
79706;SDS011;69200;53.612;-2.416;2024-03-25T06:22:58;6.37;;;2.47;;
79706;SDS011;69200;53.612;-2.416;2024-03-25T06:25:23;6.13;;;2.47;;
79706;SDS011;69200;53.612;-2.416;2024-03-25T06:27:48;10.43;;;3.70;;
79706;SDS011;69200;53.612;-2.416;2024-03-25T06:30:13;10.70;;;2.70;;
79706;SDS011;69200;53.612;-2.416;2024-03-25T06:32:57;14.88;;;3.30;;
79706;SDS011;69200;53.612;-2.416;2024-03-25T06:35:44;6.55;;;2.60;;
79706;SDS011;69200;53.612;-2.416;2024-03-25T06:38:09;9.57;;;2.80;;
79706;SDS011;69200;53.612;-2.416;2024-03-25T06:40:35;9.15;;;3.47;;
79706;SDS011;69200;53.612;-2.416;2024-03-25T06:43:00;8.02;;;3.08;;
79706;SDS011;69200;53.612;-2.416;2024-03-25T06:45:25;12.40;;;2.83;;
79706;SDS011;69200;53.612;-2.416;2024-03-25T06:47:50;8.67;;;3.33;;
79706;SDS011;69200;53.612;-2.416;2024-03-25T06:50:16;8.67;;;3.07;;
79706;SDS011;69200;53.612;-2.416;2024-03-25T06:52:41;10.13;;;2.90;;
79706;SDS011;69200;53.612;-2.416;2024-03-25T06:55:06;13.17;;;3.63;;
79706;SDS011;69200;53.612;-2.416;2024-03-25T06:57:32;11.38;;;3.17;;
79706;SDS011;69200;53.612;-2.416;2024-03-25T06:59:58;14.88;;;3.13;;
79706;SDS011;69200;53.612;-2.416;2024-03-25T07:02:23;11.50;;;2.60;;
79706;SDS011;69200;53.612;-2.416;2024-03-25T07:04:48;8.03;;;3.23;;
79706;SDS011;69200;53.612;-2.416;2024-03-25T07:07:14;6.07;;;2.45;;
79706;SDS011;69200;53.612;-2.416;2024-03-25T07:09:39;8.30;;;3.20;;
79706;SDS011;69200;53.612;-2.416;2024-03-25T07:12:04;7.07;;;2.60;;
79706;SDS011;69200;53.612;-2.416;2024-03-25T07:14:30;8.70;;;2.58;;
79706;SDS011;69200;53.612;-2.416;2024-03-25T07:16:55;12.52;;;4.38;;
79706;SDS011;69200;53.612;-2.416;2024-03-25T07:19:21;12.90;;;3.53;;
79706;SDS011;69200;53.612;-2.416;2024-03-25T07:21:46;12.33;;;2.73;;
79706;SDS011;69200;53.612;-2.416;2024-03-25T07:24:11;7.53;;;2.43;;
79706;SDS011;69200;53.612;-2.416;2024-03-25T07:26:36;8.47;;;2.50;;
79706;SDS011;69200;53.612;-2.416;2024-03-25T07:29:01;7.63;;;2.37;;
79706;SDS011;69200;53.612;-2.416;2024-03-25T07:31:27;10.37;;;3.00;;
79706;SDS011;69200;53.612;-2.416;2024-03-25T07:33:52;9.40;;;3.37;;
79706;SDS011;69200;53.612;-2.416;2024-03-25T07:36:17;9.80;;;3.10;;
79706;SDS011;69200;53.612;-2.416;2024-03-25T07:38:43;7.65;;;3.30;;
79706;SDS011;69200;53.612;-2.416;2024-03-25T07:41:09;7.37;;;3.00;;
79706;SDS011;69200;53.612;-2.416;2024-03-25T07:43:34;9.70;;;3.38;;
79706;SDS011;69200;53.612;-2.416;2024-03-25T07:45:59;6.40;;;2.47;;
79706;SDS011;69200;53.612;-2.416;2024-03-25T07:48:24;5.87;;;1.87;;
79706;SDS011;69200;53.612;-2.416;2024-03-25T07:50:50;9.83;;;2.90;;
79706;SDS011;69200;53.612;-2.416;2024-03-25T07:53:15;8.03;;;2.17;;
79706;SDS011;69200;53.612;-2.416;2024-03-25T07:55:40;8.83;;;3.23;;
79706;SDS011;69200;53.612;-2.416;2024-03-25T07:58:05;12.10;;;3.23;;
79706;SDS011;69200;53.612;-2.416;2024-03-25T08:00:30;6.77;;;2.90;;
79706;SDS011;69200;53.612;-2.416;2024-03-25T08:02:56;8.57;;;3.17;;
79706;SDS011;69200;53.612;-2.416;2024-03-25T08:05:21;13.13;;;3.40;;
79706;SDS011;69200;53.612;-2.416;2024-03-25T08:07:47;9.85;;;2.63;;
79706;SDS011;69200;53.612;-2.416;2024-03-25T08:10:13;8.27;;;2.78;;
79706;SDS011;69200;53.612;-2.416;2024-03-25T08:12:38;6.82;;;2.75;;
79706;SDS011;69200;53.612;-2.416;2024-03-25T08:15:03;10.07;;;3.00;;
79706;SDS011;69200;53.612;-2.416;2024-03-25T08:17:29;9.05;;;2.97;;
79706;SDS011;69200;53.612;-2.416;2024-03-25T08:19:54;5.73;;;1.83;;
79706;SDS011;69200;53.612;-2.416;2024-03-25T08:22:19;6.87;;;2.50;;
79706;SDS011;69200;53.612;-2.416;2024-03-25T08:24:45;6.45;;;2.30;;
79706;SDS011;69200;53.612;-2.416;2024-03-25T08:27:10;7.57;;;2.50;;
79706;SDS011;69200;53.612;-2.416;2024-03-25T08:29:35;9.90;;;2.80;;
79706;SDS011;69200;53.612;-2.416;2024-03-25T08:32:00;11.10;;;2.57;;
79706;SDS011;69200;53.612;-2.416;2024-03-25T08:34:25;8.73;;;2.20;;
79706;SDS011;69200;53.612;-2.416;2024-03-25T08:36:51;9.03;;;2.50;;
79706;SDS011;69200;53.612;-2.416;2024-03-25T08:39:16;6.97;;;2.63;;
79706;SDS011;69200;53.612;-2.416;2024-03-25T08:41:41;8.23;;;2.80;;
79706;SDS011;69200;53.612;-2.416;2024-03-25T08:44:06;5.27;;;1.83;;
79706;SDS011;69200;53.612;-2.416;2024-03-25T08:46:32;7.10;;;2.07;;
79706;SDS011;69200;53.612;-2.416;2024-03-25T08:48:57;4.25;;;1.73;;
79706;SDS011;69200;53.612;-2.416;2024-03-25T08:51:23;4.83;;;1.77;;
79706;SDS011;69200;53.612;-2.416;2024-03-25T08:53:48;9.17;;;2.27;;
79706;SDS011;69200;53.612;-2.416;2024-03-25T08:56:13;5.27;;;1.53;;
79706;SDS011;69200;53.612;-2.416;2024-03-25T08:58:39;5.05;;;1.95;;
79706;SDS011;69200;53.612;-2.416;2024-03-25T09:01:04;9.50;;;2.57;;
79706;SDS011;69200;53.612;-2.416;2024-03-25T09:03:29;5.17;;;1.93;;
79706;SDS011;69200;53.612;-2.416;2024-03-25T09:05:55;5.65;;;2.10;;
79706;SDS011;69200;53.612;-2.416;2024-03-25T09:08:21;4.72;;;1.67;;
79706;SDS011;69200;53.612;-2.416;2024-03-25T09:10:47;4.70;;;1.65;;
79706;SDS011;69200;53.612;-2.416;2024-03-25T09:13:32;9.32;;;2.17;;
79706;SDS011;69200;53.612;-2.416;2024-03-25T09:15:57;6.13;;;2.08;;
79706;SDS011;69200;53.612;-2.416;2024-03-25T09:18:22;6.73;;;2.57;;
79706;SDS011;69200;53.612;-2.416;2024-03-25T09:20:48;5.43;;;1.80;;
79706;SDS011;69200;53.612;-2.416;2024-03-25T09:23:13;6.53;;;2.20;;
79706;SDS011;69200;53.612;-2.416;2024-03-25T09:25:38;5.80;;;1.67;;
79706;SDS011;69200;53.612;-2.416;2024-03-25T09:28:03;5.23;;;1.97;;
79706;SDS011;69200;53.612;-2.416;2024-03-25T09:30:29;6.55;;;2.20;;
79706;SDS011;69200;53.612;-2.416;2024-03-25T09:32:54;5.57;;;1.80;;
79706;SDS011;69200;53.612;-2.416;2024-03-25T09:35:19;5.73;;;2.60;;
79706;SDS011;69200;53.612;-2.416;2024-03-25T09:37:45;9.75;;;2.83;;
79706;SDS011;69200;53.612;-2.416;2024-03-25T09:40:10;4.33;;;1.80;;
79706;SDS011;69200;53.612;-2.416;2024-03-25T09:42:43;10.65;;;3.00;;
79706;SDS011;69200;53.612;-2.416;2024-03-25T09:45:09;5.55;;;2.17;;
79706;SDS011;69200;53.612;-2.416;2024-03-25T09:47:36;7.53;;;2.70;;
79706;SDS011;69200;53.612;-2.416;2024-03-25T09:50:02;6.38;;;2.03;;
79706;SDS011;69200;53.612;-2.416;2024-03-25T09:52:29;6.95;;;2.72;;
79706;SDS011;69200;53.612;-2.416;2024-03-25T09:54:54;6.40;;;1.83;;
79706;SDS011;69200;53.612;-2.416;2024-03-25T09:57:20;4.40;;;1.77;;
79706;SDS011;69200;53.612;-2.416;2024-03-25T09:59:46;6.85;;;2.58;;
79706;SDS011;69200;53.612;-2.416;2024-03-25T10:02:12;5.22;;;1.73;;
79706;SDS011;69200;53.612;-2.416;2024-03-25T10:04:44;5.78;;;2.17;;
79706;SDS011;69200;53.612;-2.416;2024-03-25T10:07:09;4.78;;;1.95;;
79706;SDS011;69200;53.612;-2.416;2024-03-25T10:09:35;8.33;;;2.47;;
79706;SDS011;69200;53.612;-2.416;2024-03-25T10:12:00;5.60;;;1.95;;
79706;SDS011;69200;53.612;-2.416;2024-03-25T10:14:25;7.03;;;2.60;;
79706;SDS011;69200;53.612;-2.416;2024-03-25T10:16:51;5.47;;;1.80;;
79706;SDS011;69200;53.612;-2.416;2024-03-25T10:19:16;7.97;;;2.33;;
79706;SDS011;69200;53.612;-2.416;2024-03-25T10:21:41;4.87;;;1.20;;
79706;SDS011;69200;53.612;-2.416;2024-03-25T10:24:06;3.87;;;1.87;;
79706;SDS011;69200;53.612;-2.416;2024-03-25T10:26:32;8.32;;;1.98;;
79706;SDS011;69200;53.612;-2.416;2024-03-25T10:29:01;5.35;;;1.65;;
79706;SDS011;69200;53.612;-2.416;2024-03-25T10:31:26;5.63;;;2.05;;
79706;SDS011;69200;53.612;-2.416;2024-03-25T10:33:51;6.77;;;2.50;;
79706;SDS011;69200;53.612;-2.416;2024-03-25T10:36:17;6.78;;;2.03;;
79706;SDS011;69200;53.612;-2.416;2024-03-25T10:38:43;5.32;;;2.17;;
79706;SDS011;69200;53.612;-2.416;2024-03-25T10:41:09;6.78;;;2.08;;
79706;SDS011;69200;53.612;-2.416;2024-03-25T10:43:36;5.45;;;1.55;;
79706;SDS011;69200;53.612;-2.416;2024-03-25T10:46:02;5.22;;;2.15;;
79706;SDS011;69200;53.612;-2.416;2024-03-25T10:48:28;6.00;;;1.67;;
79706;SDS011;69200;53.612;-2.416;2024-03-25T10:50:57;5.82;;;2.33;;
79706;SDS011;69200;53.612;-2.416;2024-03-25T10:53:23;4.05;;;1.30;;
79706;SDS011;69200;53.612;-2.416;2024-03-25T10:55:50;6.85;;;2.50;;
79706;SDS011;69200;53.612;-2.416;2024-03-25T10:58:16;4.60;;;1.70;;
79706;SDS011;69200;53.612;-2.416;2024-03-25T11:00:41;7.10;;;1.92;;
79706;SDS011;69200;53.612;-2.416;2024-03-25T11:03:07;6.05;;;1.88;;
79706;SDS011;69200;53.612;-2.416;2024-03-25T11:05:33;6.35;;;1.80;;
79706;SDS011;69200;53.612;-2.416;2024-03-25T11:08:08;3.95;;;1.55;;
79706;SDS011;69200;53.612;-2.416;2024-03-25T11:10:34;3.80;;;1.52;;
79706;SDS011;69200;53.612;-2.416;2024-03-25T11:15:35;5.10;;;1.23;;
79706;SDS011;69200;53.612;-2.416;2024-03-25T11:18:00;5.35;;;1.50;;
79706;SDS011;69200;53.612;-2.416;2024-03-25T11:20:26;3.63;;;0.95;;
79706;SDS011;69200;53.612;-2.416;2024-03-25T11:22:53;5.53;;;1.58;;
79706;SDS011;69200;53.612;-2.416;2024-03-25T11:25:20;3.38;;;1.48;;
79706;SDS011;69200;53.612;-2.416;2024-03-25T11:27:46;4.00;;;1.73;;
79706;SDS011;69200;53.612;-2.416;2024-03-25T11:30:12;3.33;;;1.40;;
79706;SDS011;69200;53.612;-2.416;2024-03-25T11:32:44;3.90;;;1.65;;
79706;SDS011;69200;53.612;-2.416;2024-03-25T11:35:09;4.82;;;1.35;;
79706;SDS011;69200;53.612;-2.416;2024-03-25T11:37:41;3.45;;;1.20;;
79706;SDS011;69200;53.612;-2.416;2024-03-25T11:40:08;4.28;;;1.30;;
79706;SDS011;69200;53.612;-2.416;2024-03-25T11:42:34;5.43;;;1.75;;
79706;SDS011;69200;53.612;-2.416;2024-03-25T11:45:00;4.47;;;1.53;;
79706;SDS011;69200;53.612;-2.416;2024-03-25T11:47:26;3.80;;;1.50;;
79706;SDS011;69200;53.612;-2.416;2024-03-25T11:49:52;6.22;;;1.70;;
79706;SDS011;69200;53.612;-2.416;2024-03-25T11:52:17;5.37;;;1.53;;
79706;SDS011;69200;53.612;-2.416;2024-03-25T11:54:42;5.30;;;1.63;;
79706;SDS011;69200;53.612;-2.416;2024-03-25T11:57:07;6.50;;;1.40;;
79706;SDS011;69200;53.612;-2.416;2024-03-25T11:59:33;5.47;;;1.73;;
79706;SDS011;69200;53.612;-2.416;2024-03-25T12:01:58;4.50;;;1.50;;
79706;SDS011;69200;53.612;-2.416;2024-03-25T12:04:23;6.00;;;2.37;;
79706;SDS011;69200;53.612;-2.416;2024-03-25T12:06:49;9.07;;;1.73;;
79706;SDS011;69200;53.612;-2.416;2024-03-25T12:09:14;4.67;;;1.57;;
79706;SDS011;69200;53.612;-2.416;2024-03-25T12:11:58;3.53;;;1.40;;
79706;SDS011;69200;53.612;-2.416;2024-03-25T12:14:23;3.92;;;1.85;;
79706;SDS011;69200;53.612;-2.416;2024-03-25T12:16:51;2.95;;;1.30;;
79706;SDS011;69200;53.612;-2.416;2024-03-25T12:19:19;4.90;;;1.65;;
79706;SDS011;69200;53.612;-2.416;2024-03-25T12:21:44;5.03;;;1.80;;
79706;SDS011;69200;53.612;-2.416;2024-03-25T12:24:09;3.53;;;1.27;;
79706;SDS011;69200;53.612;-2.416;2024-03-25T12:26:35;3.67;;;1.02;;
79706;SDS011;69200;53.612;-2.416;2024-03-25T12:29:01;3.47;;;1.47;;
79706;SDS011;69200;53.612;-2.416;2024-03-25T12:31:28;4.55;;;1.50;;
79706;SDS011;69200;53.612;-2.416;2024-03-25T12:33:53;3.30;;;1.30;;
79706;SDS011;69200;53.612;-2.416;2024-03-25T12:36:20;4.18;;;1.00;;
79706;SDS011;69200;53.612;-2.416;2024-03-25T12:38:53;5.57;;;1.30;;
79706;SDS011;69200;53.612;-2.416;2024-03-25T12:41:21;11.65;;;1.23;;
79706;SDS011;69200;53.612;-2.416;2024-03-25T12:43:46;6.78;;;1.50;;
79706;SDS011;69200;53.612;-2.416;2024-03-25T12:46:12;5.23;;;1.83;;
79706;SDS011;69200;53.612;-2.416;2024-03-25T12:48:37;4.70;;;1.42;;
79706;SDS011;69200;53.612;-2.416;2024-03-25T12:51:03;5.75;;;1.90;;
79706;SDS011;69200;53.612;-2.416;2024-03-25T12:53:28;5.20;;;1.55;;
79706;SDS011;69200;53.612;-2.416;2024-03-25T12:55:53;3.43;;;1.10;;
79706;SDS011;69200;53.612;-2.416;2024-03-25T12:58:18;4.70;;;1.47;;
79706;SDS011;69200;53.612;-2.416;2024-03-25T13:00:44;6.40;;;1.60;;
79706;SDS011;69200;53.612;-2.416;2024-03-25T13:03:09;4.70;;;1.40;;
79706;SDS011;69200;53.612;-2.416;2024-03-25T13:05:35;6.35;;;1.50;;
79706;SDS011;69200;53.612;-2.416;2024-03-25T13:08:00;5.93;;;1.60;;
79706;SDS011;69200;53.612;-2.416;2024-03-25T13:10:26;2.95;;;1.17;;
79706;SDS011;69200;53.612;-2.416;2024-03-25T13:12:52;4.05;;;1.13;;
79706;SDS011;69200;53.612;-2.416;2024-03-25T13:15:17;3.63;;;1.60;;
79706;SDS011;69200;53.612;-2.416;2024-03-25T13:17:42;5.23;;;1.53;;
79706;SDS011;69200;53.612;-2.416;2024-03-25T13:20:08;3.97;;;1.47;;
79706;SDS011;69200;53.612;-2.416;2024-03-25T13:22:33;6.40;;;2.08;;
79706;SDS011;69200;53.612;-2.416;2024-03-25T13:24:58;6.93;;;1.60;;
79706;SDS011;69200;53.612;-2.416;2024-03-25T13:27:25;5.00;;;1.40;;
79706;SDS011;69200;53.612;-2.416;2024-03-25T13:29:50;4.72;;;1.77;;
79706;SDS011;69200;53.612;-2.416;2024-03-25T13:32:17;4.93;;;1.58;;
79706;SDS011;69200;53.612;-2.416;2024-03-25T13:34:42;6.17;;;2.10;;
79706;SDS011;69200;53.612;-2.416;2024-03-25T13:37:08;7.10;;;2.27;;
79706;SDS011;69200;53.612;-2.416;2024-03-25T13:39:33;4.67;;;1.67;;
79706;SDS011;69200;53.612;-2.416;2024-03-25T13:41:58;5.07;;;1.67;;
79706;SDS011;69200;53.612;-2.416;2024-03-25T13:44:23;4.73;;;1.90;;
79706;SDS011;69200;53.612;-2.416;2024-03-25T13:46:49;6.03;;;1.83;;
79706;SDS011;69200;53.612;-2.416;2024-03-25T13:49:15;8.13;;;3.05;;
79706;SDS011;69200;53.612;-2.416;2024-03-25T13:51:43;4.32;;;1.60;;
79706;SDS011;69200;53.612;-2.416;2024-03-25T13:54:08;9.07;;;2.23;;
79706;SDS011;69200;53.612;-2.416;2024-03-25T13:56:33;6.55;;;1.98;;
79706;SDS011;69200;53.612;-2.416;2024-03-25T13:58:59;6.33;;;1.97;;
79706;SDS011;69200;53.612;-2.416;2024-03-25T14:01:24;5.50;;;2.20;;
79706;SDS011;69200;53.612;-2.416;2024-03-25T14:03:49;7.05;;;2.05;;
79706;SDS011;69200;53.612;-2.416;2024-03-25T14:06:14;5.40;;;2.07;;
79706;SDS011;69200;53.612;-2.416;2024-03-25T14:08:40;6.97;;;2.00;;
79706;SDS011;69200;53.612;-2.416;2024-03-25T14:11:07;5.15;;;1.73;;
79706;SDS011;69200;53.612;-2.416;2024-03-25T14:13:32;5.53;;;1.73;;
79706;SDS011;69200;53.612;-2.416;2024-03-25T14:15:57;6.53;;;2.00;;
79706;SDS011;69200;53.612;-2.416;2024-03-25T14:18:22;5.43;;;2.17;;
79706;SDS011;69200;53.612;-2.416;2024-03-25T14:20:47;5.07;;;1.50;;
79706;SDS011;69200;53.612;-2.416;2024-03-25T14:23:14;8.32;;;2.08;;
79706;SDS011;69200;53.612;-2.416;2024-03-25T14:25:40;7.97;;;2.30;;
79706;SDS011;69200;53.612;-2.416;2024-03-25T14:28:05;5.40;;;1.85;;